sensor_id;sensor_type;location;lat;lon;timestamp;pressure;altitude;pressure_sealevel;temperature;humidity
27358;BME280;14831;50.474;7.616;2023-04-26T00:01:24;98250;;;3.6;73.6
27358;BME280;14831;50.474;7.616;2023-04-26T00:06:24;98250;;;3.5;73.8
27358;BME280;14831;50.474;7.616;2023-04-26T00:11:24;98250;;;3.4;75.0
27358;BME280;14831;50.474;7.616;2023-04-26T00:16:24;98250;;;3.3;75.4
27358;BME280;14831;50.474;7.616;2023-04-26T00:21:24;98260;;;3.4;75.0
27358;BME280;14831;50.474;7.616;2023-04-26T00:26:24;98260;;;3.5;74.4
27358;BME280;14831;50.474;7.616;2023-04-26T00:31:24;98260;;;3.5;74.4
27358;BME280;14831;50.474;7.616;2023-04-26T00:36:24;98250;;;3.4;74.8
27358;BME280;14831;50.474;7.616;2023-04-26T00:41:24;98250;;;3.3;75.1
27358;BME280;14831;50.474;7.616;2023-04-26T00:46:24;98250;;;3.2;75.4
27358;BME280;14831;50.474;7.616;2023-04-26T00:51:24;98250;;;3.1;76.0
27358;BME280;14831;50.474;7.616;2023-04-26T00:56:24;98240;;;3.0;76.2
27358;BME280;14831;50.474;7.616;2023-04-26T01:01:24;98240;;;3.0;76.7
27358;BME280;14831;50.474;7.616;2023-04-26T01:06:24;98240;;;2.9;77.0
27358;BME280;14831;50.474;7.616;2023-04-26T01:11:24;98240;;;2.8;77.1
27358;BME280;14831;50.474;7.616;2023-04-26T01:16:24;98230;;;2.7;77.5
27358;BME280;14831;50.474;7.616;2023-04-26T01:21:24;98240;;;2.5;78.4
27358;BME280;14831;50.474;7.616;2023-04-26T01:26:24;98240;;;2.4;77.9
27358;BME280;14831;50.474;7.616;2023-04-26T01:31:24;98240;;;2.2;79.3
27358;BME280;14831;50.474;7.616;2023-04-26T01:36:24;98240;;;2.2;79.5
27358;BME280;14831;50.474;7.616;2023-04-26T01:41:24;98240;;;2.2;79.2
27358;BME280;14831;50.474;7.616;2023-04-26T01:46:24;98230;;;2.2;79.0
27358;BME280;14831;50.474;7.616;2023-04-26T01:51:24;98230;;;2.0;79.7
27358;BME280;14831;50.474;7.616;2023-04-26T01:56:24;98230;;;1.8;80.1
27358;BME280;14831;50.474;7.616;2023-04-26T02:01:24;98230;;;1.9;79.6
27358;BME280;14831;50.474;7.616;2023-04-26T02:06:24;98220;;;1.8;80.2
27358;BME280;14831;50.474;7.616;2023-04-26T02:11:24;98220;;;1.6;80.3
27358;BME280;14831;50.474;7.616;2023-04-26T02:16:24;98220;;;1.5;81.3
27358;BME280;14831;50.474;7.616;2023-04-26T02:21:24;98220;;;1.5;82.1
27358;BME280;14831;50.474;7.616;2023-04-26T02:26:24;98210;;;1.4;81.7
27358;BME280;14831;50.474;7.616;2023-04-26T02:31:24;98210;;;1.2;81.4
27358;BME280;14831;50.474;7.616;2023-04-26T02:36:24;98200;;;1.1;81.8
27358;BME280;14831;50.474;7.616;2023-04-26T02:41:24;98200;;;1.0;82.0
27358;BME280;14831;50.474;7.616;2023-04-26T02:46:24;98210;;;0.8;81.6
27358;BME280;14831;50.474;7.616;2023-04-26T02:51:24;98220;;;0.7;81.6
27358;BME280;14831;50.474;7.616;2023-04-26T02:56:24;98210;;;0.6;83.7
27358;BME280;14831;50.474;7.616;2023-04-26T03:01:24;98220;;;0.5;84.4
27358;BME280;14831;50.474;7.616;2023-04-26T03:06:24;98200;;;0.3;84.4
27358;BME280;14831;50.474;7.616;2023-04-26T03:11:24;98210;;;0.2;84.8
27358;BME280;14831;50.474;7.616;2023-04-26T03:16:26;98210;;;0.0;84.7
27358;BME280;14831;50.474;7.616;2023-04-26T03:21:24;98220;;;-0.1;88.2
27358;BME280;14831;50.474;7.616;2023-04-26T03:26:24;98210;;;-0.1;89.6
27358;BME280;14831;50.474;7.616;2023-04-26T03:31:24;98210;;;-0.1;90.3
27358;BME280;14831;50.474;7.616;2023-04-26T03:36:24;98210;;;-0.1;90.6
27358;BME280;14831;50.474;7.616;2023-04-26T03:41:24;98200;;;-0.1;91.3
27358;BME280;14831;50.474;7.616;2023-04-26T03:46:24;98200;;;-0.1;91.7
27358;BME280;14831;50.474;7.616;2023-04-26T03:51:24;98200;;;-0.1;91.9
27358;BME280;14831;50.474;7.616;2023-04-26T03:56:24;98180;;;0.0;88.5
27358;BME280;14831;50.474;7.616;2023-04-26T04:01:24;98180;;;-0.1;92.5
27358;BME280;14831;50.474;7.616;2023-04-26T04:06:25;98190;;;-0.1;92.5
27358;BME280;14831;50.474;7.616;2023-04-26T04:11:24;98190;;;-0.1;92.9
27358;BME280;14831;50.474;7.616;2023-04-26T04:16:24;98200;;;-0.1;93.6
27358;BME280;14831;50.474;7.616;2023-04-26T04:21:24;98200;;;0.0;89.7
27358;BME280;14831;50.474;7.616;2023-04-26T04:26:24;98200;;;0.0;89.8
27358;BME280;14831;50.474;7.616;2023-04-26T04:31:24;98200;;;0.1;90.7
27358;BME280;14831;50.474;7.616;2023-04-26T04:36:24;98200;;;0.3;91.2
27358;BME280;14831;50.474;7.616;2023-04-26T04:41:24;98210;;;0.2;90.4
27358;BME280;14831;50.474;7.616;2023-04-26T04:46:24;98230;;;0.1;90.4
27358;BME280;14831;50.474;7.616;2023-04-26T04:51:24;98220;;;0.1;90.3
27358;BME280;14831;50.474;7.616;2023-04-26T04:56:24;98230;;;0.1;90.2
27358;BME280;14831;50.474;7.616;2023-04-26T05:01:24;98230;;;0.1;90.4
27358;BME280;14831;50.474;7.616;2023-04-26T05:06:24;98230;;;0.2;90.4
27358;BME280;14831;50.474;7.616;2023-04-26T05:11:24;98240;;;0.3;90.6
27358;BME280;14831;50.474;7.616;2023-04-26T05:16:24;98240;;;0.5;90.9
27358;BME280;14831;50.474;7.616;2023-04-26T05:21:24;98250;;;0.7;91.2
27358;BME280;14831;50.474;7.616;2023-04-26T05:26:24;98240;;;0.9;91.1
27358;BME280;14831;50.474;7.616;2023-04-26T05:31:24;98250;;;1.1;90.9
27358;BME280;14831;50.474;7.616;2023-04-26T05:36:24;98260;;;1.3;90.5
27358;BME280;14831;50.474;7.616;2023-04-26T05:41:24;98270;;;1.5;89.9
27358;BME280;14831;50.474;7.616;2023-04-26T05:46:24;98270;;;1.7;89.8
27358;BME280;14831;50.474;7.616;2023-04-26T05:51:24;98290;;;1.9;88.1
27358;BME280;14831;50.474;7.616;2023-04-26T05:56:24;98290;;;2.2;87.2
27358;BME280;14831;50.474;7.616;2023-04-26T06:01:24;98300;;;2.3;86.4
27358;BME280;14831;50.474;7.616;2023-04-26T06:06:24;98300;;;2.9;84.0
27358;BME280;14831;50.474;7.616;2023-04-26T06:11:24;98300;;;3.4;81.0
27358;BME280;14831;50.474;7.616;2023-04-26T06:16:24;98310;;;3.7;79.3
27358;BME280;14831;50.474;7.616;2023-04-26T06:21:24;98310;;;3.9;80.4
27358;BME280;14831;50.474;7.616;2023-04-26T06:26:24;98300;;;4.2;78.6
27358;BME280;14831;50.474;7.616;2023-04-26T06:31:24;98310;;;4.3;77.7
27358;BME280;14831;50.474;7.616;2023-04-26T06:36:24;98310;;;4.5;76.5
27358;BME280;14831;50.474;7.616;2023-04-26T06:41:24;98320;;;5.3;73.8
27358;BME280;14831;50.474;7.616;2023-04-26T06:46:24;98330;;;5.2;71.7
27358;BME280;14831;50.474;7.616;2023-04-26T06:51:24;98330;;;5.5;70.7
27358;BME280;14831;50.474;7.616;2023-04-26T06:56:24;98350;;;5.2;72.6
27358;BME280;14831;50.474;7.616;2023-04-26T07:01:24;98350;;;5.6;72.5
27358;BME280;14831;50.474;7.616;2023-04-26T07:06:24;98340;;;5.5;71.0
27358;BME280;14831;50.474;7.616;2023-04-26T07:11:24;98340;;;5.6;70.3
27358;BME280;14831;50.474;7.616;2023-04-26T07:16:25;98350;;;6.0;70.1
27358;BME280;14831;50.474;7.616;2023-04-26T07:21:24;98350;;;5.7;71.2
27358;BME280;14831;50.474;7.616;2023-04-26T07:26:24;98350;;;6.3;67.1
27358;BME280;14831;50.474;7.616;2023-04-26T07:31:24;98340;;;6.9;61.5
27358;BME280;14831;50.474;7.616;2023-04-26T07:36:24;98350;;;6.0;65.5
27358;BME280;14831;50.474;7.616;2023-04-26T07:41:25;98350;;;6.2;65.1
27358;BME280;14831;50.474;7.616;2023-04-26T07:46:24;98350;;;6.1;68.7
27358;BME280;14831;50.474;7.616;2023-04-26T07:51:24;98360;;;6.2;62.8
27358;BME280;14831;50.474;7.616;2023-04-26T07:56:24;98360;;;6.2;63.1
27358;BME280;14831;50.474;7.616;2023-04-26T08:01:24;98350;;;6.4;64.9
27358;BME280;14831;50.474;7.616;2023-04-26T08:06:24;98360;;;6.8;63.8
27358;BME280;14831;50.474;7.616;2023-04-26T08:11:24;98370;;;6.2;60.2
27358;BME280;14831;50.474;7.616;2023-04-26T08:16:24;98370;;;6.2;62.2
27358;BME280;14831;50.474;7.616;2023-04-26T08:21:24;98370;;;6.2;63.2
27358;BME280;14831;50.474;7.616;2023-04-26T08:26:24;98370;;;6.0;60.3
27358;BME280;14831;50.474;7.616;2023-04-26T08:31:24;98370;;;5.9;60.3
27358;BME280;14831;50.474;7.616;2023-04-26T08:36:24;98390;;;5.9;62.5
27358;BME280;14831;50.474;7.616;2023-04-26T08:41:24;98380;;;6.4;63.2
27358;BME280;14831;50.474;7.616;2023-04-26T08:46:24;98370;;;6.1;61.7
27358;BME280;14831;50.474;7.616;2023-04-26T08:51:24;98370;;;6.6;64.9
27358;BME280;14831;50.474;7.616;2023-04-26T08:56:24;98380;;;7.1;63.0
27358;BME280;14831;50.474;7.616;2023-04-26T09:01:24;98370;;;6.9;58.1
27358;BME280;14831;50.474;7.616;2023-04-26T09:06:24;98360;;;7.5;56.5
27358;BME280;14831;50.474;7.616;2023-04-26T09:11:24;98370;;;8.6;55.0
27358;BME280;14831;50.474;7.616;2023-04-26T09:16:33;98370;;;7.9;56.3
27358;BME280;14831;50.474;7.616;2023-04-26T09:21:24;98370;;;7.0;54.7
27358;BME280;14831;50.474;7.616;2023-04-26T09:26:24;98370;;;6.1;56.6
27358;BME280;14831;50.474;7.616;2023-04-26T09:31:40;98370;;;6.5;58.5
27358;BME280;14831;50.474;7.616;2023-04-26T09:36:24;98380;;;6.7;57.5
27358;BME280;14831;50.474;7.616;2023-04-26T09:41:27;98360;;;6.6;57.2
27358;BME280;14831;50.474;7.616;2023-04-26T09:46:24;98370;;;6.4;57.5
27358;BME280;14831;50.474;7.616;2023-04-26T09:51:24;98370;;;6.9;54.5
27358;BME280;14831;50.474;7.616;2023-04-26T09:56:24;98350;;;7.4;57.4
27358;BME280;14831;50.474;7.616;2023-04-26T10:01:24;98350;;;8.8;52.3
27358;BME280;14831;50.474;7.616;2023-04-26T10:06:24;98350;;;7.7;49.0
27358;BME280;14831;50.474;7.616;2023-04-26T10:11:24;98360;;;7.1;51.0
27358;BME280;14831;50.474;7.616;2023-04-26T10:16:24;98350;;;7.5;53.4
27358;BME280;14831;50.474;7.616;2023-04-26T10:21:25;98350;;;7.5;51.0
27358;BME280;14831;50.474;7.616;2023-04-26T10:26:46;98350;;;7.4;53.1
27358;BME280;14831;50.474;7.616;2023-04-26T10:31:24;98340;;;7.0;52.7
27358;BME280;14831;50.474;7.616;2023-04-26T10:36:24;98350;;;7.5;52.4
27358;BME280;14831;50.474;7.616;2023-04-26T10:41:28;98340;;;7.6;51.7
27358;BME280;14831;50.474;7.616;2023-04-26T10:46:32;98330;;;9.0;52.6
27358;BME280;14831;50.474;7.616;2023-04-26T10:51:24;98330;;;9.1;54.3
27358;BME280;14831;50.474;7.616;2023-04-26T10:56:55;98330;;;9.8;50.2
27358;BME280;14831;50.474;7.616;2023-04-26T11:01:24;98330;;;8.6;47.9
27358;BME280;14831;50.474;7.616;2023-04-26T11:06:24;98340;;;8.4;49.0
27358;BME280;14831;50.474;7.616;2023-04-26T11:11:24;98320;;;8.5;51.4
27358;BME280;14831;50.474;7.616;2023-04-26T11:16:27;98320;;;8.4;50.3
27358;BME280;14831;50.474;7.616;2023-04-26T11:21:24;98330;;;8.6;50.7
27358;BME280;14831;50.474;7.616;2023-04-26T11:26:30;98330;;;8.6;49.0
27358;BME280;14831;50.474;7.616;2023-04-26T11:31:24;98320;;;9.4;47.6
27358;BME280;14831;50.474;7.616;2023-04-26T11:36:24;98310;;;9.4;53.2
27358;BME280;14831;50.474;7.616;2023-04-26T11:41:24;98320;;;9.2;49.2
27358;BME280;14831;50.474;7.616;2023-04-26T11:46:24;98320;;;8.4;47.6
27358;BME280;14831;50.474;7.616;2023-04-26T11:51:24;98320;;;8.4;47.3
27358;BME280;14831;50.474;7.616;2023-04-26T11:56:24;98300;;;7.9;47.4
27358;BME280;14831;50.474;7.616;2023-04-26T12:01:25;98300;;;8.1;49.7
27358;BME280;14831;50.474;7.616;2023-04-26T12:06:26;98310;;;7.9;48.8
27358;BME280;14831;50.474;7.616;2023-04-26T12:11:24;98300;;;8.3;48.4
27358;BME280;14831;50.474;7.616;2023-04-26T12:16:24;98300;;;8.5;48.1
27358;BME280;14831;50.474;7.616;2023-04-26T12:21:24;98310;;;8.8;47.0
27358;BME280;14831;50.474;7.616;2023-04-26T12:26:38;98300;;;8.8;47.6
27358;BME280;14831;50.474;7.616;2023-04-26T12:31:24;98300;;;8.9;46.8
27358;BME280;14831;50.474;7.616;2023-04-26T12:36:24;98300;;;9.2;48.5
27358;BME280;14831;50.474;7.616;2023-04-26T12:41:24;98300;;;9.7;46.8
27358;BME280;14831;50.474;7.616;2023-04-26T12:46:24;98290;;;10.0;44.4
27358;BME280;14831;50.474;7.616;2023-04-26T12:51:24;98290;;;10.6;44.0
27358;BME280;14831;50.474;7.616;2023-04-26T12:56:24;98280;;;10.6;43.3
27358;BME280;14831;50.474;7.616;2023-04-26T13:01:24;98290;;;10.4;42.6
27358;BME280;14831;50.474;7.616;2023-04-26T13:06:24;98300;;;10.4;42.1
27358;BME280;14831;50.474;7.616;2023-04-26T13:11:24;98300;;;10.9;45.0
27358;BME280;14831;50.474;7.616;2023-04-26T13:16:24;98310;;;10.7;40.2
27358;BME280;14831;50.474;7.616;2023-04-26T13:21:24;98300;;;10.8;40.9
27358;BME280;14831;50.474;7.616;2023-04-26T13:26:24;98300;;;10.4;41.2
27358;BME280;14831;50.474;7.616;2023-04-26T13:31:24;98290;;;11.0;43.7
27358;BME280;14831;50.474;7.616;2023-04-26T13:36:24;98290;;;10.6;43.0
27358;BME280;14831;50.474;7.616;2023-04-26T13:41:24;98280;;;10.6;43.6
27358;BME280;14831;50.474;7.616;2023-04-26T13:46:24;98280;;;11.1;44.6
27358;BME280;14831;50.474;7.616;2023-04-26T13:51:24;98280;;;10.7;43.1
27358;BME280;14831;50.474;7.616;2023-04-26T13:56:24;98270;;;9.9;43.3
27358;BME280;14831;50.474;7.616;2023-04-26T14:01:24;98270;;;10.1;43.2
27358;BME280;14831;50.474;7.616;2023-04-26T14:06:24;98270;;;9.9;42.5
27358;BME280;14831;50.474;7.616;2023-04-26T14:11:24;98270;;;10.1;42.3
27358;BME280;14831;50.474;7.616;2023-04-26T14:16:24;98260;;;11.2;48.0
27358;BME280;14831;50.474;7.616;2023-04-26T14:21:24;98270;;;9.9;43.3
27358;BME280;14831;50.474;7.616;2023-04-26T14:26:24;98270;;;10.4;44.6
27358;BME280;14831;50.474;7.616;2023-04-26T14:31:24;98270;;;10.0;43.4
27358;BME280;14831;50.474;7.616;2023-04-26T14:36:24;98270;;;9.9;44.3
27358;BME280;14831;50.474;7.616;2023-04-26T14:41:24;98270;;;9.9;46.0
27358;BME280;14831;50.474;7.616;2023-04-26T14:46:24;98260;;;10.1;43.3
27358;BME280;14831;50.474;7.616;2023-04-26T14:51:24;98250;;;9.9;42.9
27358;BME280;14831;50.474;7.616;2023-04-26T14:56:24;98260;;;9.8;44.5
27358;BME280;14831;50.474;7.616;2023-04-26T15:01:24;98250;;;10.4;44.7
27358;BME280;14831;50.474;7.616;2023-04-26T15:06:24;98260;;;10.8;42.2
27358;BME280;14831;50.474;7.616;2023-04-26T15:11:24;98260;;;11.0;43.5
27358;BME280;14831;50.474;7.616;2023-04-26T15:16:24;98260;;;10.9;42.9
27358;BME280;14831;50.474;7.616;2023-04-26T15:21:24;98250;;;11.0;44.6
27358;BME280;14831;50.474;7.616;2023-04-26T15:26:24;98250;;;11.3;43.7
27358;BME280;14831;50.474;7.616;2023-04-26T15:31:24;98250;;;10.8;41.8
27358;BME280;14831;50.474;7.616;2023-04-26T15:36:24;98240;;;10.3;43.9
27358;BME280;14831;50.474;7.616;2023-04-26T15:41:24;98240;;;10.3;43.6
27358;BME280;14831;50.474;7.616;2023-04-26T15:46:24;98250;;;10.3;44.0
27358;BME280;14831;50.474;7.616;2023-04-26T15:51:24;98240;;;10.1;43.0
27358;BME280;14831;50.474;7.616;2023-04-26T15:56:24;98250;;;10.1;45.2
27358;BME280;14831;50.474;7.616;2023-04-26T16:01:24;98250;;;10.0;44.1
27358;BME280;14831;50.474;7.616;2023-04-26T16:06:24;98240;;;9.9;44.5
27358;BME280;14831;50.474;7.616;2023-04-26T16:11:24;98250;;;9.7;45.1
27358;BME280;14831;50.474;7.616;2023-04-26T16:16:24;98240;;;9.7;45.5
27358;BME280;14831;50.474;7.616;2023-04-26T16:21:24;98230;;;9.8;45.5
27358;BME280;14831;50.474;7.616;2023-04-26T16:26:24;98230;;;9.6;45.3
27358;BME280;14831;50.474;7.616;2023-04-26T16:31:24;98230;;;9.5;45.7
27358;BME280;14831;50.474;7.616;2023-04-26T16:36:24;98220;;;9.5;47.8
27358;BME280;14831;50.474;7.616;2023-04-26T16:41:24;98230;;;9.5;45.6
27358;BME280;14831;50.474;7.616;2023-04-26T16:46:24;98210;;;9.5;47.0
27358;BME280;14831;50.474;7.616;2023-04-26T16:51:24;98220;;;9.5;49.6
27358;BME280;14831;50.474;7.616;2023-04-26T16:56:24;98220;;;9.5;47.4
27358;BME280;14831;50.474;7.616;2023-04-26T17:01:24;98220;;;9.4;45.4
27358;BME280;14831;50.474;7.616;2023-04-26T17:06:24;98220;;;9.5;45.6
27358;BME280;14831;50.474;7.616;2023-04-26T17:11:24;98230;;;9.3;45.3
27358;BME280;14831;50.474;7.616;2023-04-26T17:16:24;98220;;;9.3;45.6
27358;BME280;14831;50.474;7.616;2023-04-26T17:21:24;98220;;;9.2;45.6
27358;BME280;14831;50.474;7.616;2023-04-26T17:26:24;98230;;;9.3;45.9
27358;BME280;14831;50.474;7.616;2023-04-26T17:31:24;98210;;;9.4;44.4
27358;BME280;14831;50.474;7.616;2023-04-26T17:36:24;98210;;;9.1;44.3
27358;BME280;14831;50.474;7.616;2023-04-26T17:41:24;98220;;;9.2;45.1
27358;BME280;14831;50.474;7.616;2023-04-26T17:46:24;98220;;;8.9;45.6
27358;BME280;14831;50.474;7.616;2023-04-26T17:51:24;98220;;;8.8;45.9
27358;BME280;14831;50.474;7.616;2023-04-26T17:56:24;98230;;;8.8;46.3
27358;BME280;14831;50.474;7.616;2023-04-26T18:01:24;98230;;;8.6;46.8
27358;BME280;14831;50.474;7.616;2023-04-26T18:06:24;98230;;;8.6;46.4
27358;BME280;14831;50.474;7.616;2023-04-26T18:11:24;98220;;;8.6;46.4
27358;BME280;14831;50.474;7.616;2023-04-26T18:16:24;98230;;;8.6;45.6
27358;BME280;14831;50.474;7.616;2023-04-26T18:21:24;98230;;;8.5;45.6
27358;BME280;14831;50.474;7.616;2023-04-26T18:26:24;98240;;;8.3;46.8
27358;BME280;14831;50.474;7.616;2023-04-26T18:31:24;98250;;;7.9;48.7
27358;BME280;14831;50.474;7.616;2023-04-26T18:36:24;98240;;;7.7;49.4
27358;BME280;14831;50.474;7.616;2023-04-26T18:41:24;98240;;;7.6;49.6
27358;BME280;14831;50.474;7.616;2023-04-26T18:46:24;98240;;;7.5;50.4
27358;BME280;14831;50.474;7.616;2023-04-26T18:51:24;98250;;;7.4;50.4
27358;BME280;14831;50.474;7.616;2023-04-26T18:56:24;98260;;;7.3;50.5
27358;BME280;14831;50.474;7.616;2023-04-26T19:01:24;98250;;;7.2;51.3
27358;BME280;14831;50.474;7.616;2023-04-26T19:06:24;98270;;;7.2;50.4
27358;BME280;14831;50.474;7.616;2023-04-26T19:11:24;98270;;;7.1;50.9
27358;BME280;14831;50.474;7.616;2023-04-26T19:16:24;98270;;;7.0;51.7
27358;BME280;14831;50.474;7.616;2023-04-26T19:21:24;98270;;;7.0;51.9
27358;BME280;14831;50.474;7.616;2023-04-26T19:26:24;98270;;;6.9;51.3
27358;BME280;14831;50.474;7.616;2023-04-26T19:31:24;98280;;;6.8;52.0
27358;BME280;14831;50.474;7.616;2023-04-26T19:36:24;98280;;;6.7;51.8
27358;BME280;14831;50.474;7.616;2023-04-26T19:41:24;98270;;;6.7;51.4
27358;BME280;14831;50.474;7.616;2023-04-26T19:46:24;98280;;;6.7;51.8
27358;BME280;14831;50.474;7.616;2023-04-26T19:51:24;98280;;;6.5;52.5
27358;BME280;14831;50.474;7.616;2023-04-26T19:56:24;98280;;;6.4;52.3
27358;BME280;14831;50.474;7.616;2023-04-26T20:01:24;98280;;;6.1;55.3
27358;BME280;14831;50.474;7.616;2023-04-26T20:06:24;98290;;;6.1;55.4
27358;BME280;14831;50.474;7.616;2023-04-26T20:11:24;98290;;;6.1;54.9
27358;BME280;14831;50.474;7.616;2023-04-26T20:16:24;98300;;;6.1;55.3
27358;BME280;14831;50.474;7.616;2023-04-26T20:21:24;98300;;;6.2;54.9
27358;BME280;14831;50.474;7.616;2023-04-26T20:26:24;98300;;;6.3;56.4
27358;BME280;14831;50.474;7.616;2023-04-26T20:31:24;98300;;;6.2;55.4
27358;BME280;14831;50.474;7.616;2023-04-26T20:36:24;98300;;;6.2;54.9
27358;BME280;14831;50.474;7.616;2023-04-26T20:41:24;98300;;;6.4;55.0
27358;BME280;14831;50.474;7.616;2023-04-26T20:46:24;98300;;;6.4;55.0
27358;BME280;14831;50.474;7.616;2023-04-26T20:51:24;98290;;;6.2;55.5
27358;BME280;14831;50.474;7.616;2023-04-26T20:56:24;98290;;;6.0;55.7
27358;BME280;14831;50.474;7.616;2023-04-26T21:01:24;98290;;;5.9;56.8
27358;BME280;14831;50.474;7.616;2023-04-26T21:06:24;98290;;;5.8;56.4
27358;BME280;14831;50.474;7.616;2023-04-26T21:11:24;98270;;;5.8;57.2
27358;BME280;14831;50.474;7.616;2023-04-26T21:16:24;98290;;;5.8;58.1
27358;BME280;14831;50.474;7.616;2023-04-26T21:21:24;98280;;;5.9;57.0
27358;BME280;14831;50.474;7.616;2023-04-26T21:26:24;98280;;;5.9;58.0
27358;BME280;14831;50.474;7.616;2023-04-26T21:31:24;98280;;;6.0;55.4
27358;BME280;14831;50.474;7.616;2023-04-26T21:36:24;98290;;;6.1;55.8
27358;BME280;14831;50.474;7.616;2023-04-26T21:41:24;98300;;;6.0;56.1
27358;BME280;14831;50.474;7.616;2023-04-26T21:46:24;98300;;;5.9;56.8
27358;BME280;14831;50.474;7.616;2023-04-26T21:51:24;98300;;;5.9;57.6
27358;BME280;14831;50.474;7.616;2023-04-26T21:56:24;98300;;;5.9;56.4
27358;BME280;14831;50.474;7.616;2023-04-26T22:01:24;98300;;;5.9;57.3
27358;BME280;14831;50.474;7.616;2023-04-26T22:06:24;98300;;;5.8;58.3
27358;BME280;14831;50.474;7.616;2023-04-26T22:11:24;98300;;;5.8;58.0
27358;BME280;14831;50.474;7.616;2023-04-26T22:16:24;98310;;;5.8;58.3
27358;BME280;14831;50.474;7.616;2023-04-26T22:21:24;98310;;;5.8;58.5
27358;BME280;14831;50.474;7.616;2023-04-26T22:26:24;98310;;;5.8;58.1
27358;BME280;14831;50.474;7.616;2023-04-26T22:31:24;98310;;;5.8;58.4
27358;BME280;14831;50.474;7.616;2023-04-26T22:36:24;98310;;;5.8;58.4
27358;BME280;14831;50.474;7.616;2023-04-26T22:41:24;98310;;;5.7;58.8
27358;BME280;14831;50.474;7.616;2023-04-26T22:46:24;98300;;;5.7;59.5
27358;BME280;14831;50.474;7.616;2023-04-26T22:51:24;98320;;;5.6;60.2
27358;BME280;14831;50.474;7.616;2023-04-26T22:56:24;98310;;;5.5;61.0
27358;BME280;14831;50.474;7.616;2023-04-26T23:01:24;98320;;;5.5;60.4
27358;BME280;14831;50.474;7.616;2023-04-26T23:06:24;98310;;;5.5;60.4
27358;BME280;14831;50.474;7.616;2023-04-26T23:11:24;98310;;;5.3;60.7
27358;BME280;14831;50.474;7.616;2023-04-26T23:16:24;98310;;;5.2;61.5
27358;BME280;14831;50.474;7.616;2023-04-26T23:21:24;98310;;;5.1;62.0
27358;BME280;14831;50.474;7.616;2023-04-26T23:26:24;98310;;;5.1;62.0
27358;BME280;14831;50.474;7.616;2023-04-26T23:31:24;98300;;;5.0;62.2
27358;BME280;14831;50.474;7.616;2023-04-26T23:36:24;98310;;;5.1;61.3
27358;BME280;14831;50.474;7.616;2023-04-26T23:41:24;98310;;;4.7;63.6
27358;BME280;14831;50.474;7.616;2023-04-26T23:46:24;98310;;;4.6;64.3
27358;BME280;14831;50.474;7.616;2023-04-26T23:51:24;98310;;;4.5;64.5
27358;BME280;14831;50.474;7.616;2023-04-26T23:56:24;98300;;;4.6;64.2
